createdAt,value
2023-01-13T00:01:46.426Z,74.86
2023-01-13T00:04:13.222Z,74.94
2023-01-13T00:06:39.924Z,75.14
2023-01-13T00:09:06.903Z,75.06
2023-01-13T00:11:35.017Z,75.22
2023-01-13T00:14:01.573Z,75.16
2023-01-13T00:16:28.332Z,75.19
2023-01-13T00:18:55.164Z,75.43
2023-01-13T00:21:23.927Z,75.46
2023-01-13T00:23:55.013Z,75.36
2023-01-13T00:26:24.736Z,75.40
2023-01-13T00:28:56.473Z,75.40
2023-01-13T00:31:23.840Z,75.33
2023-01-13T00:33:50.653Z,75.41
2023-01-13T00:36:19.872Z,75.77
2023-01-13T00:38:47.289Z,76.11
2023-01-13T00:41:24.990Z,76.13
2023-01-13T00:43:51.865Z,76.24
2023-01-13T00:46:20.598Z,76.18
2023-01-13T00:48:48.172Z,76.27
2023-01-13T00:51:20.231Z,76.01
2023-01-13T00:53:49.973Z,76.08
2023-01-13T00:56:38.620Z,75.90
2023-01-13T00:59:09.976Z,75.88
2023-01-13T01:01:37.330Z,75.97
2023-01-13T01:04:04.544Z,75.94
2023-01-13T01:06:31.609Z,76.14
2023-01-13T01:08:58.395Z,75.99
2023-01-13T01:11:27.773Z,76.07
2023-01-13T01:13:56.583Z,75.99
2023-01-13T01:16:25.939Z,76.08
2023-01-13T01:18:53.583Z,76.25
2023-01-13T01:21:22.137Z,76.43
2023-01-13T01:23:48.985Z,76.62
2023-01-13T01:26:24.718Z,76.80
2023-01-13T01:28:52.640Z,76.99
2023-01-13T01:31:31.714Z,77.21
2023-01-13T01:34:00.066Z,77.04
2023-01-13T01:36:30.597Z,76.97
2023-01-13T01:38:59.092Z,77.16
2023-01-13T01:41:29.891Z,77.04
2023-01-13T01:43:59.963Z,77.17
2023-01-13T01:46:48.128Z,77.29
2023-01-13T01:49:19.990Z,77.23
2023-01-13T01:51:53.268Z,77.31
2023-01-13T01:54:27.565Z,77.38
2023-01-13T01:56:54.980Z,77.27
2023-01-13T01:59:22.960Z,77.43
2023-01-13T02:01:49.927Z,77.36
2023-01-13T02:04:32.620Z,77.29
2023-01-13T02:07:00.884Z,77.38
2023-01-13T02:09:29.884Z,77.40
2023-01-13T02:12:15.559Z,77.54
2023-01-13T02:14:43.187Z,77.91
2023-01-13T02:17:28.829Z,78.18
2023-01-13T02:20:13.565Z,78.34
2023-01-13T02:23:05.464Z,78.29
2023-01-13T02:26:06.854Z,78.45
2023-01-13T02:28:59.805Z,78.65
2023-01-13T02:31:43.415Z,78.54
2023-01-13T02:34:28.552Z,78.56
2023-01-13T02:37:03.404Z,78.72
2023-01-13T02:39:38.040Z,78.74
2023-01-13T02:42:49.879Z,78.84
2023-01-13T02:45:46.012Z,78.73
2023-01-13T02:48:14.879Z,78.90
2023-01-13T02:50:47.975Z,78.88
2023-01-13T02:53:21.368Z,79.09
2023-01-13T02:55:51.849Z,79.16
2023-01-13T02:58:24.601Z,78.98
2023-01-13T03:00:51.790Z,78.99
2023-01-13T03:03:19.205Z,79.16
2023-01-13T03:05:49.496Z,78.84
2023-01-13T03:08:33.311Z,78.86
2023-01-13T03:11:07.962Z,79.03
2023-01-13T03:14:08.017Z,79.09
2023-01-13T03:16:47.209Z,79.08
2023-01-13T03:19:26.062Z,79.26
2023-01-13T03:21:59.973Z,79.16
2023-01-13T03:24:42.567Z,79.56
2023-01-13T03:27:17.388Z,80.32
2023-01-13T03:29:51.756Z,80.31
2023-01-13T03:32:32.575Z,80.63
2023-01-13T03:35:03.632Z,80.61
2023-01-13T03:37:35.395Z,81.05
2023-01-13T03:40:08.462Z,81.12
2023-01-13T03:42:40.274Z,81.53
2023-01-13T03:45:15.412Z,81.82
2023-01-13T03:47:50.108Z,82.28
2023-01-13T03:50:35.241Z,82.25
2023-01-13T03:53:17.676Z,82.28
2023-01-13T03:55:49.915Z,82.40
2023-01-13T03:58:32.208Z,82.40
2023-01-13T04:01:05.058Z,82.42
2023-01-13T04:03:45.314Z,82.66
2023-01-13T04:06:26.350Z,82.91
2023-01-13T04:09:01.284Z,83.29
2023-01-13T04:11:33.713Z,82.90
2023-01-13T04:14:03.336Z,82.90
2023-01-13T04:16:31.233Z,83.06
2023-01-13T04:18:57.983Z,83.55
2023-01-13T04:21:25.065Z,83.64
2023-01-13T04:23:51.702Z,83.69
2023-01-13T04:26:19.317Z,83.75
2023-01-13T04:28:46.311Z,84.04
2023-01-13T04:31:13.024Z,84.35
2023-01-13T04:33:39.963Z,84.26
2023-01-13T04:36:07.293Z,84.27
2023-01-13T04:38:34.331Z,84.12
2023-01-13T04:41:01.051Z,84.14
2023-01-13T04:43:27.845Z,84.28
2023-01-13T04:45:54.575Z,84.36
2023-01-13T04:48:21.409Z,84.14
2023-01-13T04:50:48.531Z,84.20
2023-01-13T04:53:15.300Z,84.31
2023-01-13T04:55:43.995Z,84.53
2023-01-13T04:58:10.863Z,84.66
2023-01-13T05:00:38.165Z,84.57
2023-01-13T05:03:05.649Z,84.62
2023-01-13T05:05:32.570Z,84.80
2023-01-13T05:07:59.446Z,84.94
2023-01-13T05:10:26.920Z,85.06
2023-01-13T05:13:12.450Z,85.36
2023-01-13T05:15:59.215Z,85.49
2023-01-13T05:18:28.887Z,85.71
2023-01-13T05:20:55.538Z,85.73
2023-01-13T05:23:40.894Z,85.83
2023-01-13T05:26:08.145Z,85.90
2023-01-13T05:28:34.910Z,86.08
2023-01-13T05:31:01.829Z,86.11
2023-01-13T05:33:28.746Z,86.32
2023-01-13T05:35:55.435Z,86.47
2023-01-13T05:38:22.084Z,86.47
2023-01-13T05:41:07.619Z,86.52
2023-01-13T05:43:34.726Z,86.42
2023-01-13T05:46:05.114Z,86.82
2023-01-13T05:48:34.700Z,86.81
2023-01-13T05:51:03.363Z,86.73
2023-01-13T05:53:30.482Z,86.84
2023-01-13T05:55:57.524Z,86.99
2023-01-13T05:58:25.795Z,87.06
2023-01-13T06:00:53.488Z,86.93
2023-01-13T06:03:20.443Z,86.67
2023-01-13T06:05:47.768Z,87.05
2023-01-13T06:08:14.716Z,86.99
2023-01-13T06:10:41.359Z,86.86
2023-01-13T06:13:08.423Z,87.01
2023-01-13T06:15:35.207Z,87.05
2023-01-13T06:18:03.831Z,87.05
2023-01-13T06:20:30.864Z,86.97
2023-01-13T06:22:58.846Z,86.94
2023-01-13T06:25:32.858Z,87.02
2023-01-13T06:28:00.233Z,87.04
2023-01-13T06:30:30.698Z,86.97
2023-01-13T06:33:01.355Z,86.90
2023-01-13T06:35:34.312Z,86.77
2023-01-13T06:38:07.025Z,86.89
2023-01-13T06:40:34.652Z,86.85
2023-01-13T06:43:16.140Z,86.85
2023-01-13T06:45:54.872Z,86.86
2023-01-13T06:48:34.766Z,86.73
2023-01-13T06:51:03.310Z,86.77
2023-01-13T06:53:30.532Z,86.78
2023-01-13T06:55:57.371Z,86.58
2023-01-13T06:58:24.265Z,86.61
2023-01-13T07:00:51.140Z,86.71
2023-01-13T07:03:19.227Z,86.50
2023-01-13T07:05:54.227Z,86.44
2023-01-13T07:08:22.671Z,86.66
2023-01-13T07:10:50.640Z,86.51
2023-01-13T07:13:36.411Z,86.50
2023-01-13T07:16:06.041Z,86.44
2023-01-13T07:18:34.346Z,86.57
2023-01-13T07:21:06.958Z,86.52
2023-01-13T07:23:55.323Z,86.54
2023-01-13T07:26:22.375Z,86.52
2023-01-13T07:28:49.047Z,86.70
2023-01-13T07:31:18.473Z,86.81
2023-01-13T07:33:45.675Z,86.83
2023-01-13T07:36:13.832Z,86.95
2023-01-13T07:38:43.803Z,86.86
2023-01-13T07:41:33.698Z,86.97
2023-01-13T07:44:04.357Z,87.00
2023-01-13T07:46:32.291Z,87.14
2023-01-13T07:48:59.736Z,87.30
2023-01-13T07:51:26.737Z,87.35
2023-01-13T07:53:53.463Z,87.33
2023-01-13T07:56:20.289Z,87.56
2023-01-13T07:58:50.487Z,87.51
2023-01-13T08:01:19.928Z,87.50
2023-01-13T08:03:46.933Z,87.61
2023-01-13T08:06:14.468Z,87.54
2023-01-13T08:08:41.062Z,87.41
2023-01-13T08:11:08.748Z,87.43
2023-01-13T08:13:35.891Z,87.60
2023-01-13T08:16:05.923Z,87.50
2023-01-13T08:18:34.363Z,87.49
2023-01-13T08:21:04.024Z,87.50
2023-01-13T08:23:30.787Z,87.56
2023-01-13T08:26:02.675Z,87.38
2023-01-13T08:28:30.631Z,87.53
2023-01-13T08:31:02.136Z,87.51
2023-01-13T08:33:29.860Z,87.43
2023-01-13T08:35:57.176Z,87.45
2023-01-13T08:38:24.565Z,87.21
2023-01-13T08:40:51.500Z,87.23
2023-01-13T08:43:18.503Z,86.93
2023-01-13T08:45:45.183Z,86.93
2023-01-13T08:48:12.038Z,86.78
2023-01-13T08:50:38.963Z,86.65
2023-01-13T08:53:05.613Z,86.52
2023-01-13T08:55:32.585Z,86.48
2023-01-13T08:58:14.145Z,86.02
2023-01-13T09:00:42.438Z,86.07
2023-01-13T09:03:09.297Z,85.65
2023-01-13T09:05:36.477Z,85.29
2023-01-13T09:08:03.402Z,85.28
2023-01-13T09:10:30.253Z,85.23
2023-01-13T09:13:12.315Z,85.23
2023-01-13T09:15:41.234Z,84.99
2023-01-13T09:18:08.219Z,84.89
2023-01-13T09:20:34.967Z,84.70
2023-01-13T09:23:02.463Z,84.46
2023-01-13T09:25:29.677Z,84.51
2023-01-13T09:27:57.259Z,84.41
2023-01-13T09:30:24.764Z,84.33
2023-01-13T09:33:11.359Z,84.10
2023-01-13T09:35:38.905Z,83.82
2023-01-13T09:38:06.422Z,83.77
2023-01-13T09:40:33.709Z,83.73
2023-01-13T09:43:30.836Z,83.38
2023-01-13T09:46:42.456Z,83.44
2023-01-13T09:49:20.298Z,83.23
2023-01-13T09:51:58.607Z,83.33
2023-01-13T09:54:33.084Z,83.19
2023-01-13T09:57:00.445Z,82.96
2023-01-13T09:59:32.032Z,82.87
2023-01-13T10:02:18.130Z,82.74
2023-01-13T10:05:13.436Z,82.36
2023-01-13T10:07:54.504Z,82.68
2023-01-13T10:10:33.239Z,82.15
2023-01-13T10:13:16.277Z,82.14
2023-01-13T10:15:54.548Z,81.81
2023-01-13T10:18:25.192Z,81.66
2023-01-13T10:21:07.384Z,81.68
2023-01-13T10:23:51.021Z,81.59
2023-01-13T10:26:24.625Z,81.41
2023-01-13T10:28:53.231Z,81.15
2023-01-13T10:31:21.616Z,81.03
2023-01-13T10:33:48.824Z,81.04
2023-01-13T10:36:21.138Z,80.44
2023-01-13T10:38:50.385Z,80.53
2023-01-13T10:41:19.949Z,80.28
2023-01-13T10:44:03.747Z,79.99
2023-01-13T10:46:49.331Z,79.96
2023-01-13T10:49:32.587Z,79.21
2023-01-13T10:52:04.270Z,79.04
2023-01-13T10:54:31.123Z,79.64
2023-01-13T10:57:14.978Z,79.40
2023-01-13T10:59:42.417Z,79.17
2023-01-13T11:02:27.946Z,78.63
2023-01-13T11:04:55.143Z,79.08
2023-01-13T11:08:00.667Z,78.60
2023-01-13T11:10:32.055Z,78.62
2023-01-13T11:13:09.346Z,78.82
2023-01-13T11:15:58.517Z,78.34
2023-01-13T11:18:40.746Z,77.78
2023-01-13T11:21:41.010Z,77.31
2023-01-13T11:24:21.799Z,77.83
2023-01-13T11:27:04.091Z,78.29
2023-01-13T11:29:42.903Z,78.17
2023-01-13T11:32:18.624Z,78.28
2023-01-13T11:34:54.671Z,77.62
2023-01-13T11:37:32.234Z,77.61
2023-01-13T11:40:05.571Z,77.69
2023-01-13T11:42:38.218Z,77.32
2023-01-13T11:45:23.744Z,77.45
2023-01-13T11:47:54.250Z,76.80
2023-01-13T11:50:34.174Z,76.64
2023-01-13T11:53:11.756Z,76.56
2023-01-13T11:55:52.941Z,76.85
2023-01-13T11:58:50.714Z,76.88
2023-01-13T12:01:33.674Z,76.70
2023-01-13T12:04:08.817Z,76.56
2023-01-13T12:06:39.687Z,76.42
2023-01-13T12:09:25.170Z,76.00
2023-01-13T12:12:10.337Z,76.21
2023-01-13T12:15:15.018Z,76.08
2023-01-13T12:18:13.243Z,75.81
2023-01-13T12:21:15.603Z,76.09
2023-01-13T12:24:00.520Z,76.34
2023-01-13T12:26:31.591Z,76.55
2023-01-13T12:29:17.796Z,76.32
2023-01-13T12:31:48.574Z,76.35
2023-01-13T12:34:34.417Z,76.11
2023-01-13T12:37:47.402Z,76.04
2023-01-13T12:40:51.145Z,75.81
2023-01-13T12:43:51.870Z,75.62
2023-01-13T12:46:18.609Z,75.76
2023-01-13T12:48:45.672Z,75.86
2023-01-13T12:51:27.672Z,75.89
2023-01-13T12:53:55.904Z,75.85
2023-01-13T12:56:44.309Z,75.73
2023-01-13T12:59:18.488Z,75.58
2023-01-13T13:01:50.511Z,75.69
2023-01-13T13:04:43.022Z,75.78
2023-01-13T13:07:18.628Z,75.38
2023-01-13T13:09:51.996Z,75.35
2023-01-13T13:12:49.624Z,75.21
2023-01-13T13:15:22.972Z,75.30
2023-01-13T13:17:58.847Z,74.99
2023-01-13T13:21:04.198Z,75.18
2023-01-13T13:23:37.947Z,75.09
2023-01-13T13:26:25.519Z,75.44
2023-01-13T13:29:15.136Z,75.72
2023-01-13T13:32:02.549Z,75.49
2023-01-13T13:34:42.484Z,75.54
2023-01-13T13:37:25.962Z,75.12
2023-01-13T13:40:12.359Z,75.26
2023-01-13T13:43:14.396Z,75.48
2023-01-13T13:46:10.173Z,75.02
2023-01-13T13:48:37.272Z,75.08
2023-01-13T13:51:24.623Z,75.50
2023-01-13T13:53:52.151Z,76.11
2023-01-13T13:56:22.557Z,76.34
2023-01-13T13:58:50.171Z,76.41
2023-01-13T14:01:23.779Z,76.45
2023-01-13T14:04:17.448Z,76.66
2023-01-13T14:07:04.506Z,76.81
2023-01-13T14:09:43.821Z,77.12
2023-01-13T14:12:20.848Z,77.59
2023-01-13T14:14:48.793Z,77.88
2023-01-13T14:17:28.623Z,78.16
2023-01-13T14:20:09.596Z,78.20
2023-01-13T14:22:36.695Z,78.34
2023-01-13T14:25:30.999Z,77.99
2023-01-13T14:28:03.267Z,78.22
2023-01-13T14:30:30.994Z,78.39
2023-01-13T14:32:58.801Z,78.51
2023-01-13T14:35:25.723Z,78.67
2023-01-13T14:38:01.089Z,78.75
2023-01-13T14:40:48.990Z,78.87
2023-01-13T14:43:19.372Z,78.90
2023-01-13T14:46:06.541Z,78.92
2023-01-13T14:48:35.519Z,78.98
2023-01-13T14:51:06.017Z,78.84
2023-01-13T14:53:46.806Z,78.82
2023-01-13T14:56:35.915Z,78.82
2023-01-13T14:59:42.519Z,78.76
2023-01-13T15:02:24.923Z,78.75
2023-01-13T15:04:58.263Z,78.64
2023-01-13T15:07:27.351Z,78.49
2023-01-13T15:09:57.990Z,78.57
2023-01-13T15:12:40.263Z,78.65
2023-01-13T15:15:30.072Z,78.54
2023-01-13T15:17:57.016Z,78.42
2023-01-13T15:20:24.704Z,78.18
2023-01-13T15:22:51.836Z,78.28
2023-01-13T15:25:19.640Z,78.30
2023-01-13T15:27:51.248Z,78.15
2023-01-13T15:30:20.671Z,78.02
2023-01-13T15:32:47.771Z,77.97
2023-01-13T15:35:15.808Z,77.86
2023-01-13T15:37:44.804Z,77.79
2023-01-13T15:40:24.888Z,77.59
2023-01-13T15:43:10.530Z,77.34
2023-01-13T15:45:56.429Z,77.32
2023-01-13T15:48:25.944Z,77.00
2023-01-13T15:50:52.893Z,76.95
2023-01-13T15:53:19.790Z,76.83
2023-01-13T15:55:51.797Z,76.53
2023-01-13T15:58:20.848Z,76.21
2023-01-13T16:00:47.736Z,76.40
2023-01-13T16:03:16.471Z,75.81
2023-01-13T16:05:46.191Z,75.70
2023-01-13T16:08:21.226Z,75.86
2023-01-13T16:10:50.211Z,75.72
2023-01-13T16:13:20.558Z,75.66
2023-01-13T16:15:49.338Z,75.22
2023-01-13T16:18:23.197Z,75.29
2023-01-13T16:20:53.028Z,75.19
2023-01-13T16:23:19.778Z,75.22
2023-01-13T16:25:47.248Z,75.17
2023-01-13T16:28:21.354Z,74.93
2023-01-13T16:30:48.257Z,75.25
2023-01-13T16:33:15.076Z,74.83
2023-01-13T16:36:08.732Z,74.87
2023-01-13T16:38:29.329Z,74.79
2023-01-13T16:40:56.943Z,74.90
2023-01-13T16:43:23.507Z,74.73
2023-01-13T16:45:50.291Z,74.34
2023-01-13T16:48:19.980Z,74.34
2023-01-13T16:50:46.883Z,74.59
2023-01-13T16:53:13.782Z,74.65
2023-01-13T16:55:41.771Z,74.29
2023-01-13T16:58:20.341Z,74.59
2023-01-13T17:00:47.723Z,74.26
2023-01-13T17:03:15.566Z,74.57
2023-01-13T17:05:44.368Z,74.57
2023-01-13T17:08:16.933Z,74.89
2023-01-13T17:10:44.853Z,75.02
2023-01-13T17:13:16.372Z,75.20
2023-01-13T17:15:45.540Z,75.36
2023-01-13T17:18:12.693Z,75.30
2023-01-13T17:20:39.925Z,75.37
2023-01-13T17:23:06.658Z,75.60
2023-01-13T17:25:33.348Z,75.71
2023-01-13T17:28:00.334Z,75.79
2023-01-13T17:30:27.181Z,75.87
2023-01-13T17:32:53.833Z,76.06
2023-01-13T17:35:24.208Z,76.06
2023-01-13T17:37:52.679Z,76.31
2023-01-13T17:40:20.101Z,76.39
2023-01-13T17:42:47.349Z,76.43
2023-01-13T17:45:14.778Z,76.61
2023-01-13T17:47:41.540Z,76.65
2023-01-13T17:50:09.129Z,76.94
2023-01-13T17:52:36.029Z,77.06
2023-01-13T17:55:02.610Z,77.09
2023-01-13T17:57:29.673Z,77.19
2023-01-13T17:59:57.985Z,77.23
2023-01-13T18:02:26.189Z,77.38
2023-01-13T18:04:53.270Z,77.58
2023-01-13T18:07:20.227Z,77.62
2023-01-13T18:09:46.925Z,77.69
2023-01-13T18:12:14.171Z,77.90
2023-01-13T18:14:41.281Z,77.91
2023-01-13T18:17:09.797Z,77.96
2023-01-13T18:19:56.331Z,77.99
2023-01-13T18:22:43.025Z,78.10
2023-01-13T18:25:31.522Z,78.01
2023-01-13T18:28:04.392Z,78.17
2023-01-13T18:30:31.362Z,78.21
2023-01-13T18:32:58.305Z,78.20
2023-01-13T18:35:25.056Z,78.07
2023-01-13T18:37:52.440Z,78.11
2023-01-13T18:40:19.348Z,78.16
2023-01-13T18:42:56.429Z,78.19
2023-01-13T18:45:31.888Z,78.29
2023-01-13T18:48:01.199Z,78.46
2023-01-13T18:50:28.834Z,78.38
2023-01-13T18:52:56.699Z,78.27
2023-01-13T18:55:24.439Z,78.27
2023-01-13T18:57:53.179Z,78.35
2023-01-13T19:00:22.497Z,78.32
2023-01-13T19:02:51.702Z,78.34
2023-01-13T19:05:18.634Z,78.34
2023-01-13T19:07:50.568Z,78.38
2023-01-13T19:10:17.841Z,78.41
2023-01-13T19:12:44.958Z,78.45
2023-01-13T19:15:12.252Z,78.41
2023-01-13T19:17:39.392Z,78.36
2023-01-13T19:20:07.967Z,78.35
2023-01-13T19:22:35.656Z,78.24
2023-01-13T19:25:04.388Z,78.37
2023-01-13T19:27:32.531Z,78.33
2023-01-13T19:30:01.522Z,78.18
2023-01-13T19:32:30.990Z,78.10
2023-01-13T19:34:59.293Z,77.87
2023-01-13T19:37:29.728Z,77.87
2023-01-13T19:39:59.498Z,77.78
2023-01-13T19:42:45.354Z,77.87
2023-01-13T19:45:36.549Z,77.82
2023-01-13T19:48:05.386Z,77.64
2023-01-13T19:50:39.246Z,77.78
2023-01-13T19:53:17.442Z,77.67
2023-01-13T19:55:47.815Z,77.60
2023-01-13T19:58:14.958Z,77.64
2023-01-13T20:00:46.852Z,77.63
2023-01-13T20:03:14.360Z,77.76
2023-01-13T20:05:42.547Z,77.67
2023-01-13T20:08:10.722Z,77.69
2023-01-13T20:10:38.071Z,77.76
2023-01-13T20:13:04.878Z,77.84
2023-01-13T20:15:31.908Z,77.72
2023-01-13T20:17:59.869Z,77.66
2023-01-13T20:20:26.878Z,77.75
2023-01-13T20:22:53.605Z,77.78
2023-01-13T20:25:20.681Z,77.75
2023-01-13T20:27:48.048Z,77.86
2023-01-13T20:30:15.765Z,77.72
2023-01-13T20:32:44.679Z,77.85
2023-01-13T20:35:11.466Z,77.89
2023-01-13T20:37:40.556Z,78.02
2023-01-13T20:40:10.550Z,77.87
2023-01-13T20:42:49.582Z,77.95
2023-01-13T20:45:20.180Z,77.92
2023-01-13T20:47:47.312Z,78.03
2023-01-13T20:50:15.111Z,77.96
2023-01-13T20:52:42.089Z,78.01
2023-01-13T20:55:10.066Z,78.04
2023-01-13T20:57:36.770Z,77.92
2023-01-13T21:00:04.593Z,78.13
2023-01-13T21:02:32.500Z,78.09
2023-01-13T21:04:59.471Z,78.17
2023-01-13T21:07:27.745Z,78.16
2023-01-13T21:09:57.179Z,78.09
2023-01-13T21:12:42.730Z,78.12
2023-01-13T21:15:17.747Z,78.13
2023-01-13T21:18:06.094Z,78.19
2023-01-13T21:20:35.286Z,78.15
2023-01-13T21:23:03.463Z,77.97
2023-01-13T21:25:32.686Z,78.11
2023-01-13T21:28:07.639Z,78.04
2023-01-13T21:30:34.995Z,78.04
2023-01-13T21:33:03.836Z,78.04
2023-01-13T21:35:31.177Z,78.10
2023-01-13T21:37:58.521Z,78.09
2023-01-13T21:40:25.925Z,78.04
2023-01-13T21:43:11.233Z,78.03
2023-01-13T21:45:57.315Z,78.07
2023-01-13T21:48:24.267Z,78.22
2023-01-13T21:50:51.090Z,78.10
2023-01-13T21:53:17.693Z,78.08
2023-01-13T21:55:44.438Z,78.14
2023-01-13T21:58:14.656Z,78.14
2023-01-13T22:00:43.801Z,78.07
2023-01-13T22:03:13.402Z,78.10
2023-01-13T22:05:40.736Z,78.15
2023-01-13T22:08:07.892Z,78.10
2023-01-13T22:10:35.211Z,78.09
2023-01-13T22:13:22.364Z,77.98
2023-01-13T22:15:49.396Z,77.97
2023-01-13T22:18:17.615Z,78.00
2023-01-13T22:20:44.991Z,78.01
2023-01-13T22:23:11.903Z,78.06
2023-01-13T22:25:38.729Z,78.13
2023-01-13T22:28:08.063Z,78.21
2023-01-13T22:30:35.109Z,78.25
2023-01-13T22:33:01.933Z,78.29
2023-01-13T22:35:28.603Z,78.33
2023-01-13T22:37:55.420Z,78.36
2023-01-13T22:40:22.371Z,78.30
2023-01-13T22:42:49.003Z,78.39
2023-01-13T22:45:16.014Z,78.49
2023-01-13T22:47:43.153Z,78.58
2023-01-13T22:50:11.984Z,78.70
2023-01-13T22:52:39.066Z,78.72
2023-01-13T22:55:06.564Z,78.74
2023-01-13T22:57:36.528Z,78.82
2023-01-13T23:00:10.054Z,78.86
2023-01-13T23:02:37.629Z,78.71
2023-01-13T23:05:04.761Z,78.98
2023-01-13T23:07:31.703Z,78.97
2023-01-13T23:09:58.307Z,79.10
2023-01-13T23:12:24.910Z,79.13
2023-01-13T23:14:51.924Z,79.11
2023-01-13T23:17:18.525Z,79.28
2023-01-13T23:19:45.111Z,79.30
2023-01-13T23:22:12.940Z,79.19
2023-01-13T23:24:39.599Z,79.14
2023-01-13T23:27:06.192Z,79.12
2023-01-13T23:29:33.304Z,79.18
2023-01-13T23:31:59.921Z,79.05
2023-01-13T23:34:26.560Z,79.03
2023-01-13T23:36:53.765Z,78.93
2023-01-13T23:39:20.318Z,78.90
2023-01-13T23:41:46.914Z,78.93
2023-01-13T23:44:14.110Z,78.91
2023-01-13T23:46:40.884Z,78.91
2023-01-13T23:49:07.579Z,78.83
2023-01-13T23:51:34.861Z,78.75
2023-01-13T23:54:01.706Z,78.76
2023-01-13T23:56:30.473Z,78.61
2023-01-13T23:58:57.801Z,78.62
